sensor_id;sensor_type;location;lat;lon;timestamp;P1;durP1;ratioP1;P2;durP2;ratioP2
18520;SDS011;9390;51.244;6.982;2024-03-08T00:02:09;23.30;;;11.10;;
18520;SDS011;9390;51.244;6.982;2024-03-08T00:04:42;26.83;;;12.85;;
18520;SDS011;9390;51.244;6.982;2024-03-08T00:07:14;28.67;;;11.80;;
18520;SDS011;9390;51.244;6.982;2024-03-08T00:09:46;26.83;;;12.57;;
18520;SDS011;9390;51.244;6.982;2024-03-08T00:12:17;25.52;;;12.18;;
18520;SDS011;9390;51.244;6.982;2024-03-08T00:14:50;23.65;;;11.70;;
18520;SDS011;9390;51.244;6.982;2024-03-08T00:17:22;24.85;;;11.00;;
18520;SDS011;9390;51.244;6.982;2024-03-08T00:19:55;28.52;;;12.05;;
18520;SDS011;9390;51.244;6.982;2024-03-08T00:22:27;28.38;;;12.40;;
18520;SDS011;9390;51.244;6.982;2024-03-08T00:27:31;27.33;;;12.27;;
18520;SDS011;9390;51.244;6.982;2024-03-08T00:30:04;28.08;;;13.07;;
18520;SDS011;9390;51.244;6.982;2024-03-08T00:32:36;27.92;;;11.35;;
18520;SDS011;9390;51.244;6.982;2024-03-08T00:35:09;28.60;;;13.27;;
18520;SDS011;9390;51.244;6.982;2024-03-08T00:37:42;29.20;;;13.20;;
18520;SDS011;9390;51.244;6.982;2024-03-08T00:40:17;28.20;;;12.43;;
18520;SDS011;9390;51.244;6.982;2024-03-08T00:42:49;26.93;;;12.57;;
18520;SDS011;9390;51.244;6.982;2024-03-08T00:45:20;26.55;;;11.82;;
18520;SDS011;9390;51.244;6.982;2024-03-08T00:47:52;26.48;;;11.15;;
18520;SDS011;9390;51.244;6.982;2024-03-08T00:50:25;26.10;;;12.38;;
18520;SDS011;9390;51.244;6.982;2024-03-08T00:52:57;25.50;;;12.40;;
18520;SDS011;9390;51.244;6.982;2024-03-08T00:55:28;26.15;;;11.05;;
18520;SDS011;9390;51.244;6.982;2024-03-08T00:58:00;27.08;;;11.90;;
18520;SDS011;9390;51.244;6.982;2024-03-08T01:00:31;26.58;;;11.85;;
18520;SDS011;9390;51.244;6.982;2024-03-08T01:03:03;24.30;;;12.63;;
18520;SDS011;9390;51.244;6.982;2024-03-08T01:05:36;28.92;;;13.68;;
18520;SDS011;9390;51.244;6.982;2024-03-08T01:08:08;30.00;;;13.73;;
18520;SDS011;9390;51.244;6.982;2024-03-08T01:10:41;25.95;;;12.70;;
18520;SDS011;9390;51.244;6.982;2024-03-08T01:13:13;30.10;;;11.68;;
18520;SDS011;9390;51.244;6.982;2024-03-08T01:15:44;28.95;;;12.18;;
18520;SDS011;9390;51.244;6.982;2024-03-08T01:18:16;26.85;;;12.00;;
18520;SDS011;9390;51.244;6.982;2024-03-08T01:20:49;32.00;;;12.30;;
18520;SDS011;9390;51.244;6.982;2024-03-08T01:23:20;21.42;;;11.75;;
18520;SDS011;9390;51.244;6.982;2024-03-08T01:25:52;31.65;;;12.95;;
18520;SDS011;9390;51.244;6.982;2024-03-08T01:28:26;24.77;;;11.32;;
18520;SDS011;9390;51.244;6.982;2024-03-08T01:30:58;24.10;;;11.32;;
18520;SDS011;9390;51.244;6.982;2024-03-08T01:33:30;25.05;;;12.48;;
18520;SDS011;9390;51.244;6.982;2024-03-08T01:36:03;28.42;;;12.68;;
18520;SDS011;9390;51.244;6.982;2024-03-08T01:38:34;26.45;;;11.68;;
18520;SDS011;9390;51.244;6.982;2024-03-08T01:41:06;31.00;;;13.13;;
18520;SDS011;9390;51.244;6.982;2024-03-08T01:43:39;26.48;;;11.63;;
18520;SDS011;9390;51.244;6.982;2024-03-08T01:46:10;27.40;;;11.75;;
18520;SDS011;9390;51.244;6.982;2024-03-08T01:48:43;30.02;;;11.50;;
18520;SDS011;9390;51.244;6.982;2024-03-08T01:51:16;29.90;;;12.48;;
18520;SDS011;9390;51.244;6.982;2024-03-08T01:53:47;32.42;;;12.75;;
18520;SDS011;9390;51.244;6.982;2024-03-08T01:56:19;30.10;;;12.63;;
18520;SDS011;9390;51.244;6.982;2024-03-08T01:58:50;25.55;;;10.15;;
18520;SDS011;9390;51.244;6.982;2024-03-08T02:01:22;24.40;;;11.57;;
18520;SDS011;9390;51.244;6.982;2024-03-08T02:03:54;32.08;;;12.82;;
18520;SDS011;9390;51.244;6.982;2024-03-08T02:06:27;30.38;;;12.30;;
18520;SDS011;9390;51.244;6.982;2024-03-08T02:08:58;25.38;;;11.85;;
18520;SDS011;9390;51.244;6.982;2024-03-08T02:11:30;26.15;;;11.63;;
18520;SDS011;9390;51.244;6.982;2024-03-08T02:14:02;33.90;;;13.40;;
18520;SDS011;9390;51.244;6.982;2024-03-08T02:16:34;27.13;;;12.43;;
18520;SDS011;9390;51.244;6.982;2024-03-08T02:19:05;31.15;;;12.52;;
18520;SDS011;9390;51.244;6.982;2024-03-08T02:21:41;30.65;;;12.63;;
18520;SDS011;9390;51.244;6.982;2024-03-08T02:24:12;28.20;;;12.40;;
18520;SDS011;9390;51.244;6.982;2024-03-08T02:26:43;28.58;;;13.55;;
18520;SDS011;9390;51.244;6.982;2024-03-08T02:29:15;28.92;;;13.10;;
18520;SDS011;9390;51.244;6.982;2024-03-08T02:31:47;35.85;;;14.00;;
18520;SDS011;9390;51.244;6.982;2024-03-08T02:34:18;30.42;;;12.40;;
18520;SDS011;9390;51.244;6.982;2024-03-08T02:36:51;29.10;;;12.88;;
18520;SDS011;9390;51.244;6.982;2024-03-08T02:39:22;29.75;;;12.20;;
18520;SDS011;9390;51.244;6.982;2024-03-08T02:41:54;25.73;;;12.05;;
18520;SDS011;9390;51.244;6.982;2024-03-08T02:44:25;27.90;;;12.05;;
18520;SDS011;9390;51.244;6.982;2024-03-08T02:46:57;28.77;;;12.93;;
18520;SDS011;9390;51.244;6.982;2024-03-08T02:49:29;25.50;;;12.23;;
18520;SDS011;9390;51.244;6.982;2024-03-08T02:52:02;28.40;;;11.48;;
18520;SDS011;9390;51.244;6.982;2024-03-08T02:54:34;29.80;;;12.82;;
18520;SDS011;9390;51.244;6.982;2024-03-08T02:57:06;28.70;;;11.85;;
18520;SDS011;9390;51.244;6.982;2024-03-08T02:59:38;25.83;;;11.75;;
18520;SDS011;9390;51.244;6.982;2024-03-08T03:02:10;29.70;;;12.25;;
18520;SDS011;9390;51.244;6.982;2024-03-08T03:04:41;30.70;;;12.52;;
18520;SDS011;9390;51.244;6.982;2024-03-08T03:07:14;30.38;;;12.23;;
18520;SDS011;9390;51.244;6.982;2024-03-08T03:09:46;27.83;;;12.50;;
18520;SDS011;9390;51.244;6.982;2024-03-08T03:12:18;26.52;;;12.00;;
18520;SDS011;9390;51.244;6.982;2024-03-08T03:14:49;28.88;;;12.25;;
18520;SDS011;9390;51.244;6.982;2024-03-08T03:17:21;24.33;;;11.48;;
18520;SDS011;9390;51.244;6.982;2024-03-08T03:19:52;32.28;;;12.57;;
18520;SDS011;9390;51.244;6.982;2024-03-08T03:22:25;30.17;;;12.93;;
18520;SDS011;9390;51.244;6.982;2024-03-08T03:24:56;26.85;;;11.60;;
18520;SDS011;9390;51.244;6.982;2024-03-08T03:27:31;28.80;;;12.90;;
18520;SDS011;9390;51.244;6.982;2024-03-08T03:30:02;26.05;;;11.45;;
18520;SDS011;9390;51.244;6.982;2024-03-08T03:32:50;26.35;;;11.02;;
18520;SDS011;9390;51.244;6.982;2024-03-08T03:35:22;26.73;;;11.95;;
18520;SDS011;9390;51.244;6.982;2024-03-08T03:37:55;24.45;;;10.75;;
18520;SDS011;9390;51.244;6.982;2024-03-08T03:40:36;26.58;;;10.95;;
18520;SDS011;9390;51.244;6.982;2024-03-08T03:43:08;26.77;;;11.68;;
18520;SDS011;9390;51.244;6.982;2024-03-08T03:45:40;33.33;;;12.43;;
18520;SDS011;9390;51.244;6.982;2024-03-08T03:48:12;27.25;;;11.55;;
18520;SDS011;9390;51.244;6.982;2024-03-08T03:50:43;30.30;;;12.13;;
18520;SDS011;9390;51.244;6.982;2024-03-08T03:53:16;28.35;;;11.50;;
18520;SDS011;9390;51.244;6.982;2024-03-08T03:55:47;30.95;;;12.95;;
18520;SDS011;9390;51.244;6.982;2024-03-08T03:58:19;22.60;;;11.70;;
18520;SDS011;9390;51.244;6.982;2024-03-08T04:03:23;27.75;;;11.30;;
18520;SDS011;9390;51.244;6.982;2024-03-08T04:05:55;26.08;;;12.32;;
18520;SDS011;9390;51.244;6.982;2024-03-08T04:08:28;27.88;;;11.85;;
18520;SDS011;9390;51.244;6.982;2024-03-08T04:11:00;24.95;;;11.25;;
18520;SDS011;9390;51.244;6.982;2024-03-08T04:13:31;27.55;;;11.85;;
18520;SDS011;9390;51.244;6.982;2024-03-08T04:16:03;28.80;;;11.55;;
18520;SDS011;9390;51.244;6.982;2024-03-08T04:18:37;27.02;;;11.23;;
18520;SDS011;9390;51.244;6.982;2024-03-08T04:21:09;26.05;;;11.95;;
18520;SDS011;9390;51.244;6.982;2024-03-08T04:23:42;28.45;;;11.65;;
18520;SDS011;9390;51.244;6.982;2024-03-08T04:26:15;27.00;;;11.05;;
18520;SDS011;9390;51.244;6.982;2024-03-08T04:28:46;24.55;;;11.93;;
18520;SDS011;9390;51.244;6.982;2024-03-08T04:31:18;25.27;;;12.25;;
18520;SDS011;9390;51.244;6.982;2024-03-08T04:33:49;26.40;;;10.88;;
18520;SDS011;9390;51.244;6.982;2024-03-08T04:36:21;32.22;;;13.10;;
18520;SDS011;9390;51.244;6.982;2024-03-08T04:38:54;31.27;;;12.15;;
18520;SDS011;9390;51.244;6.982;2024-03-08T04:41:26;31.90;;;11.80;;
18520;SDS011;9390;51.244;6.982;2024-03-08T04:43:57;25.00;;;11.02;;
18520;SDS011;9390;51.244;6.982;2024-03-08T04:46:29;27.08;;;11.18;;
18520;SDS011;9390;51.244;6.982;2024-03-08T04:49:00;26.77;;;11.40;;
18520;SDS011;9390;51.244;6.982;2024-03-08T04:51:32;27.48;;;10.95;;
18520;SDS011;9390;51.244;6.982;2024-03-08T04:54:05;26.25;;;12.13;;
18520;SDS011;9390;51.244;6.982;2024-03-08T04:56:36;25.48;;;11.18;;
18520;SDS011;9390;51.244;6.982;2024-03-08T04:59:08;29.73;;;11.63;;
18520;SDS011;9390;51.244;6.982;2024-03-08T05:01:39;26.63;;;11.77;;
18520;SDS011;9390;51.244;6.982;2024-03-08T05:04:11;29.88;;;10.18;;
18520;SDS011;9390;51.244;6.982;2024-03-08T05:06:42;30.40;;;11.60;;
18520;SDS011;9390;51.244;6.982;2024-03-08T05:09:15;28.95;;;11.13;;
18520;SDS011;9390;51.244;6.982;2024-03-08T05:11:49;29.25;;;11.35;;
18520;SDS011;9390;51.244;6.982;2024-03-08T05:14:20;25.42;;;11.63;;
18520;SDS011;9390;51.244;6.982;2024-03-08T05:16:51;28.30;;;13.02;;
18520;SDS011;9390;51.244;6.982;2024-03-08T05:19:23;28.67;;;13.02;;
18520;SDS011;9390;51.244;6.982;2024-03-08T05:21:55;27.92;;;12.32;;
18520;SDS011;9390;51.244;6.982;2024-03-08T05:24:28;29.92;;;11.70;;
18520;SDS011;9390;51.244;6.982;2024-03-08T05:29:32;25.92;;;10.55;;
18520;SDS011;9390;51.244;6.982;2024-03-08T05:32:04;33.80;;;13.48;;
18520;SDS011;9390;51.244;6.982;2024-03-08T05:34:37;30.40;;;12.60;;
18520;SDS011;9390;51.244;6.982;2024-03-08T05:37:08;31.23;;;11.98;;
18520;SDS011;9390;51.244;6.982;2024-03-08T05:39:41;27.33;;;11.98;;
18520;SDS011;9390;51.244;6.982;2024-03-08T05:42:12;27.33;;;12.52;;
18520;SDS011;9390;51.244;6.982;2024-03-08T05:44:44;32.92;;;13.85;;
18520;SDS011;9390;51.244;6.982;2024-03-08T05:47:15;25.02;;;11.13;;
18520;SDS011;9390;51.244;6.982;2024-03-08T05:49:48;26.08;;;11.63;;
18520;SDS011;9390;51.244;6.982;2024-03-08T05:52:20;25.20;;;11.48;;
18520;SDS011;9390;51.244;6.982;2024-03-08T05:54:52;29.70;;;12.75;;
18520;SDS011;9390;51.244;6.982;2024-03-08T05:57:24;30.67;;;13.45;;
18520;SDS011;9390;51.244;6.982;2024-03-08T05:59:56;25.45;;;10.77;;
18520;SDS011;9390;51.244;6.982;2024-03-08T06:02:28;31.00;;;12.27;;
18520;SDS011;9390;51.244;6.982;2024-03-08T06:04:59;30.77;;;12.55;;
18520;SDS011;9390;51.244;6.982;2024-03-08T06:07:32;27.92;;;11.95;;
18520;SDS011;9390;51.244;6.982;2024-03-08T06:10:05;25.88;;;11.18;;
18520;SDS011;9390;51.244;6.982;2024-03-08T06:12:40;27.98;;;11.98;;
18520;SDS011;9390;51.244;6.982;2024-03-08T06:15:11;30.77;;;12.93;;
18520;SDS011;9390;51.244;6.982;2024-03-08T06:17:44;26.83;;;12.00;;
18520;SDS011;9390;51.244;6.982;2024-03-08T06:20:16;25.73;;;10.98;;
18520;SDS011;9390;51.244;6.982;2024-03-08T06:22:47;31.25;;;13.18;;
18520;SDS011;9390;51.244;6.982;2024-03-08T06:25:20;27.58;;;11.02;;
18520;SDS011;9390;51.244;6.982;2024-03-08T06:27:52;28.98;;;13.15;;
18520;SDS011;9390;51.244;6.982;2024-03-08T06:30:23;38.92;;;15.50;;
18520;SDS011;9390;51.244;6.982;2024-03-08T06:32:55;32.15;;;15.10;;
18520;SDS011;9390;51.244;6.982;2024-03-08T06:35:26;31.63;;;13.55;;
18520;SDS011;9390;51.244;6.982;2024-03-08T06:37:58;29.80;;;12.93;;
18520;SDS011;9390;51.244;6.982;2024-03-08T06:40:30;32.10;;;11.57;;
18520;SDS011;9390;51.244;6.982;2024-03-08T06:43:02;33.05;;;13.88;;
18520;SDS011;9390;51.244;6.982;2024-03-08T06:45:35;32.65;;;13.90;;
18520;SDS011;9390;51.244;6.982;2024-03-08T06:48:07;31.23;;;13.02;;
18520;SDS011;9390;51.244;6.982;2024-03-08T06:50:40;27.23;;;12.75;;
18520;SDS011;9390;51.244;6.982;2024-03-08T06:53:11;32.13;;;12.98;;
18520;SDS011;9390;51.244;6.982;2024-03-08T06:55:45;29.05;;;12.98;;
18520;SDS011;9390;51.244;6.982;2024-03-08T06:58:16;32.25;;;13.38;;
18520;SDS011;9390;51.244;6.982;2024-03-08T07:00:48;29.67;;;12.52;;
18520;SDS011;9390;51.244;6.982;2024-03-08T07:03:22;32.33;;;13.05;;
18520;SDS011;9390;51.244;6.982;2024-03-08T07:05:53;32.08;;;13.25;;
18520;SDS011;9390;51.244;6.982;2024-03-08T07:10:59;30.30;;;12.38;;
18520;SDS011;9390;51.244;6.982;2024-03-08T07:13:31;29.75;;;12.80;;
18520;SDS011;9390;51.244;6.982;2024-03-08T07:16:02;35.08;;;13.77;;
18520;SDS011;9390;51.244;6.982;2024-03-08T07:18:35;25.70;;;12.35;;
18520;SDS011;9390;51.244;6.982;2024-03-08T07:21:09;27.80;;;12.95;;
18520;SDS011;9390;51.244;6.982;2024-03-08T07:23:41;28.92;;;13.32;;
18520;SDS011;9390;51.244;6.982;2024-03-08T07:26:34;31.42;;;13.02;;
18520;SDS011;9390;51.244;6.982;2024-03-08T07:29:05;30.75;;;14.10;;
18520;SDS011;9390;51.244;6.982;2024-03-08T07:31:38;29.20;;;12.70;;
18520;SDS011;9390;51.244;6.982;2024-03-08T07:34:20;31.60;;;14.18;;
18520;SDS011;9390;51.244;6.982;2024-03-08T07:36:51;33.92;;;14.82;;
18520;SDS011;9390;51.244;6.982;2024-03-08T07:39:23;34.90;;;15.25;;
18520;SDS011;9390;51.244;6.982;2024-03-08T07:41:56;30.70;;;13.73;;
18520;SDS011;9390;51.244;6.982;2024-03-08T07:44:27;28.10;;;13.68;;
18520;SDS011;9390;51.244;6.982;2024-03-08T07:46:59;29.55;;;13.82;;
18520;SDS011;9390;51.244;6.982;2024-03-08T07:49:31;31.42;;;13.80;;
18520;SDS011;9390;51.244;6.982;2024-03-08T07:52:02;32.20;;;14.35;;
18520;SDS011;9390;51.244;6.982;2024-03-08T07:54:37;28.90;;;12.65;;
18520;SDS011;9390;51.244;6.982;2024-03-08T07:57:11;32.63;;;15.68;;
18520;SDS011;9390;51.244;6.982;2024-03-08T07:59:43;31.70;;;13.77;;
18520;SDS011;9390;51.244;6.982;2024-03-08T08:02:14;34.55;;;15.23;;
18520;SDS011;9390;51.244;6.982;2024-03-08T08:04:46;29.05;;;14.45;;
18520;SDS011;9390;51.244;6.982;2024-03-08T08:07:18;28.70;;;14.52;;
18520;SDS011;9390;51.244;6.982;2024-03-08T08:09:50;28.55;;;13.48;;
18520;SDS011;9390;51.244;6.982;2024-03-08T08:12:23;28.77;;;14.25;;
18520;SDS011;9390;51.244;6.982;2024-03-08T08:14:55;33.13;;;14.68;;
18520;SDS011;9390;51.244;6.982;2024-03-08T08:17:27;29.83;;;14.32;;
18520;SDS011;9390;51.244;6.982;2024-03-08T08:19:58;26.40;;;13.30;;
18520;SDS011;9390;51.244;6.982;2024-03-08T08:22:30;27.55;;;14.50;;
18520;SDS011;9390;51.244;6.982;2024-03-08T08:25:02;27.98;;;14.70;;
18520;SDS011;9390;51.244;6.982;2024-03-08T08:27:35;27.67;;;14.13;;
18520;SDS011;9390;51.244;6.982;2024-03-08T08:30:08;31.48;;;16.10;;
18520;SDS011;9390;51.244;6.982;2024-03-08T08:32:41;24.60;;;14.18;;
18520;SDS011;9390;51.244;6.982;2024-03-08T08:37:46;25.08;;;13.32;;
18520;SDS011;9390;51.244;6.982;2024-03-08T08:40:18;23.92;;;13.30;;
18520;SDS011;9390;51.244;6.982;2024-03-08T08:42:51;28.17;;;14.35;;
18520;SDS011;9390;51.244;6.982;2024-03-08T08:45:22;27.73;;;13.52;;
18520;SDS011;9390;51.244;6.982;2024-03-08T08:47:54;23.98;;;14.68;;
18520;SDS011;9390;51.244;6.982;2024-03-08T08:50:26;26.85;;;14.05;;
18520;SDS011;9390;51.244;6.982;2024-03-08T08:52:58;27.75;;;15.82;;
18520;SDS011;9390;51.244;6.982;2024-03-08T08:55:29;27.13;;;13.73;;
18520;SDS011;9390;51.244;6.982;2024-03-08T08:58:02;24.50;;;13.80;;
18520;SDS011;9390;51.244;6.982;2024-03-08T09:00:34;26.30;;;13.63;;
18520;SDS011;9390;51.244;6.982;2024-03-08T09:03:06;25.52;;;13.82;;
18520;SDS011;9390;51.244;6.982;2024-03-08T09:05:37;24.77;;;13.25;;
18520;SDS011;9390;51.244;6.982;2024-03-08T09:08:09;28.55;;;14.13;;
18520;SDS011;9390;51.244;6.982;2024-03-08T09:10:40;25.13;;;13.23;;
18520;SDS011;9390;51.244;6.982;2024-03-08T09:13:14;26.63;;;14.20;;
18520;SDS011;9390;51.244;6.982;2024-03-08T09:15:46;24.95;;;12.93;;
18520;SDS011;9390;51.244;6.982;2024-03-08T09:18:18;25.13;;;12.75;;
18520;SDS011;9390;51.244;6.982;2024-03-08T09:20:50;25.25;;;12.68;;
18520;SDS011;9390;51.244;6.982;2024-03-08T09:23:21;25.05;;;12.25;;
18520;SDS011;9390;51.244;6.982;2024-03-08T09:25:53;23.00;;;12.48;;
18520;SDS011;9390;51.244;6.982;2024-03-08T09:28:25;22.52;;;11.82;;
18520;SDS011;9390;51.244;6.982;2024-03-08T09:30:57;25.17;;;12.57;;
18520;SDS011;9390;51.244;6.982;2024-03-08T09:33:29;23.75;;;12.98;;
18520;SDS011;9390;51.244;6.982;2024-03-08T09:36:00;26.20;;;13.43;;
18520;SDS011;9390;51.244;6.982;2024-03-08T09:38:33;25.98;;;12.35;;
18520;SDS011;9390;51.244;6.982;2024-03-08T09:41:05;22.80;;;13.30;;
18520;SDS011;9390;51.244;6.982;2024-03-08T09:43:38;23.40;;;11.50;;
18520;SDS011;9390;51.244;6.982;2024-03-08T09:46:09;22.35;;;12.27;;
18520;SDS011;9390;51.244;6.982;2024-03-08T09:48:41;22.40;;;12.02;;
18520;SDS011;9390;51.244;6.982;2024-03-08T09:51:13;21.88;;;12.43;;
18520;SDS011;9390;51.244;6.982;2024-03-08T09:53:45;22.27;;;12.53;;
18520;SDS011;9390;51.244;6.982;2024-03-08T09:56:17;24.27;;;12.25;;
18520;SDS011;9390;51.244;6.982;2024-03-08T09:58:50;21.95;;;11.95;;
18520;SDS011;9390;51.244;6.982;2024-03-08T10:01:49;23.52;;;11.30;;
18520;SDS011;9390;51.244;6.982;2024-03-08T10:04:22;20.13;;;11.32;;
18520;SDS011;9390;51.244;6.982;2024-03-08T10:06:53;19.90;;;11.13;;
18520;SDS011;9390;51.244;6.982;2024-03-08T10:09:26;24.65;;;12.73;;
18520;SDS011;9390;51.244;6.982;2024-03-08T10:11:58;20.27;;;11.52;;
18520;SDS011;9390;51.244;6.982;2024-03-08T10:14:31;21.73;;;10.23;;
18520;SDS011;9390;51.244;6.982;2024-03-08T10:17:03;21.40;;;10.73;;
18520;SDS011;9390;51.244;6.982;2024-03-08T10:19:35;22.60;;;11.45;;
18520;SDS011;9390;51.244;6.982;2024-03-08T10:22:07;17.38;;;10.00;;
18520;SDS011;9390;51.244;6.982;2024-03-08T10:24:45;19.80;;;10.73;;
18520;SDS011;9390;51.244;6.982;2024-03-08T10:27:16;18.13;;;9.10;;
18520;SDS011;9390;51.244;6.982;2024-03-08T10:29:49;20.13;;;10.20;;
18520;SDS011;9390;51.244;6.982;2024-03-08T10:32:21;17.85;;;8.57;;
18520;SDS011;9390;51.244;6.982;2024-03-08T10:34:54;20.80;;;9.77;;
18520;SDS011;9390;51.244;6.982;2024-03-08T10:37:25;18.95;;;9.32;;
18520;SDS011;9390;51.244;6.982;2024-03-08T10:40:01;17.33;;;8.68;;
18520;SDS011;9390;51.244;6.982;2024-03-08T10:42:40;18.98;;;9.73;;
18520;SDS011;9390;51.244;6.982;2024-03-08T10:45:15;19.10;;;9.13;;
18520;SDS011;9390;51.244;6.982;2024-03-08T10:47:47;17.30;;;8.45;;
18520;SDS011;9390;51.244;6.982;2024-03-08T10:50:20;17.90;;;9.00;;
18520;SDS011;9390;51.244;6.982;2024-03-08T10:52:52;17.67;;;9.27;;
18520;SDS011;9390;51.244;6.982;2024-03-08T10:55:23;18.48;;;9.30;;
18520;SDS011;9390;51.244;6.982;2024-03-08T11:00:29;20.25;;;9.27;;
18520;SDS011;9390;51.244;6.982;2024-03-08T11:03:02;18.42;;;9.63;;
18520;SDS011;9390;51.244;6.982;2024-03-08T11:05:37;19.42;;;10.18;;
18520;SDS011;9390;51.244;6.982;2024-03-08T11:08:16;19.92;;;9.38;;
18520;SDS011;9390;51.244;6.982;2024-03-08T11:10:49;17.52;;;9.27;;
18520;SDS011;9390;51.244;6.982;2024-03-08T11:13:32;20.73;;;9.75;;
18520;SDS011;9390;51.244;6.982;2024-03-08T11:16:08;20.27;;;9.40;;
18520;SDS011;9390;51.244;6.982;2024-03-08T11:18:40;17.55;;;9.93;;
18520;SDS011;9390;51.244;6.982;2024-03-08T11:21:12;18.42;;;9.40;;
18520;SDS011;9390;51.244;6.982;2024-03-08T11:23:45;20.20;;;9.83;;
18520;SDS011;9390;51.244;6.982;2024-03-08T11:26:30;20.63;;;9.82;;
18520;SDS011;9390;51.244;6.982;2024-03-08T11:32:10;17.45;;;8.95;;
18520;SDS011;9390;51.244;6.982;2024-03-08T11:34:42;17.58;;;9.77;;
18520;SDS011;9390;51.244;6.982;2024-03-08T11:37:15;20.02;;;9.75;;
18520;SDS011;9390;51.244;6.982;2024-03-08T11:39:48;18.38;;;10.45;;
18520;SDS011;9390;51.244;6.982;2024-03-08T11:42:20;20.90;;;10.90;;
18520;SDS011;9390;51.244;6.982;2024-03-08T11:44:52;16.60;;;9.00;;
18520;SDS011;9390;51.244;6.982;2024-03-08T11:47:25;17.40;;;9.80;;
18520;SDS011;9390;51.244;6.982;2024-03-08T11:52:29;17.67;;;8.75;;
18520;SDS011;9390;51.244;6.982;2024-03-08T11:55:00;17.85;;;9.48;;
18520;SDS011;9390;51.244;6.982;2024-03-08T11:57:32;15.98;;;9.27;;
18520;SDS011;9390;51.244;6.982;2024-03-08T12:00:04;17.23;;;9.27;;
18520;SDS011;9390;51.244;6.982;2024-03-08T12:02:38;14.48;;;7.97;;
18520;SDS011;9390;51.244;6.982;2024-03-08T12:05:12;18.88;;;9.00;;
18520;SDS011;9390;51.244;6.982;2024-03-08T12:07:53;17.42;;;9.57;;
18520;SDS011;9390;51.244;6.982;2024-03-08T12:10:27;16.42;;;9.48;;
18520;SDS011;9390;51.244;6.982;2024-03-08T12:12:59;16.50;;;9.05;;
18520;SDS011;9390;51.244;6.982;2024-03-08T12:15:31;17.20;;;9.15;;
18520;SDS011;9390;51.244;6.982;2024-03-08T12:20:37;14.93;;;8.65;;
18520;SDS011;9390;51.244;6.982;2024-03-08T12:23:13;16.30;;;9.05;;
18520;SDS011;9390;51.244;6.982;2024-03-08T12:25:45;16.23;;;8.98;;
18520;SDS011;9390;51.244;6.982;2024-03-08T12:28:18;17.20;;;9.63;;
18520;SDS011;9390;51.244;6.982;2024-03-08T12:30:51;17.73;;;8.73;;
18520;SDS011;9390;51.244;6.982;2024-03-08T12:33:26;15.18;;;8.70;;
18520;SDS011;9390;51.244;6.982;2024-03-08T12:35:57;17.58;;;9.10;;
18520;SDS011;9390;51.244;6.982;2024-03-08T12:38:28;16.38;;;8.68;;
18520;SDS011;9390;51.244;6.982;2024-03-08T12:41:01;16.90;;;8.20;;
18520;SDS011;9390;51.244;6.982;2024-03-08T12:43:33;16.52;;;9.15;;
18520;SDS011;9390;51.244;6.982;2024-03-08T12:46:04;17.23;;;8.75;;
18520;SDS011;9390;51.244;6.982;2024-03-08T12:48:38;17.42;;;9.40;;
18520;SDS011;9390;51.244;6.982;2024-03-08T12:51:10;17.02;;;8.85;;
18520;SDS011;9390;51.244;6.982;2024-03-08T12:53:41;15.80;;;8.25;;
18520;SDS011;9390;51.244;6.982;2024-03-08T12:56:15;15.85;;;8.27;;
18520;SDS011;9390;51.244;6.982;2024-03-08T12:58:51;15.80;;;9.18;;
18520;SDS011;9390;51.244;6.982;2024-03-08T13:01:23;15.53;;;9.17;;
18520;SDS011;9390;51.244;6.982;2024-03-08T13:03:56;16.80;;;8.70;;
18520;SDS011;9390;51.244;6.982;2024-03-08T13:06:28;15.73;;;7.82;;
18520;SDS011;9390;51.244;6.982;2024-03-08T13:09:01;17.25;;;8.27;;
18520;SDS011;9390;51.244;6.982;2024-03-08T13:11:35;15.13;;;7.72;;
18520;SDS011;9390;51.244;6.982;2024-03-08T13:14:07;16.08;;;8.10;;
18520;SDS011;9390;51.244;6.982;2024-03-08T13:16:40;14.32;;;7.60;;
18520;SDS011;9390;51.244;6.982;2024-03-08T13:19:13;16.70;;;7.88;;
18520;SDS011;9390;51.244;6.982;2024-03-08T13:21:44;14.35;;;7.38;;
18520;SDS011;9390;51.244;6.982;2024-03-08T13:24:19;15.40;;;7.95;;
18520;SDS011;9390;51.244;6.982;2024-03-08T13:26:50;16.02;;;8.07;;
18520;SDS011;9390;51.244;6.982;2024-03-08T13:29:22;17.48;;;8.45;;
18520;SDS011;9390;51.244;6.982;2024-03-08T13:31:53;15.07;;;7.63;;
18520;SDS011;9390;51.244;6.982;2024-03-08T13:36:59;15.95;;;7.40;;
18520;SDS011;9390;51.244;6.982;2024-03-08T13:39:33;15.10;;;7.85;;
18520;SDS011;9390;51.244;6.982;2024-03-08T13:42:10;13.25;;;7.25;;
18520;SDS011;9390;51.244;6.982;2024-03-08T13:44:45;13.60;;;7.78;;
18520;SDS011;9390;51.244;6.982;2024-03-08T13:47:20;18.23;;;8.50;;
18520;SDS011;9390;51.244;6.982;2024-03-08T13:49:52;16.38;;;7.68;;
18520;SDS011;9390;51.244;6.982;2024-03-08T13:54:59;14.80;;;7.93;;
18520;SDS011;9390;51.244;6.982;2024-03-08T13:57:30;15.23;;;7.85;;
18520;SDS011;9390;51.244;6.982;2024-03-08T14:00:02;14.95;;;7.93;;
18520;SDS011;9390;51.244;6.982;2024-03-08T14:02:36;16.23;;;7.47;;
18520;SDS011;9390;51.244;6.982;2024-03-08T14:05:12;14.60;;;8.05;;
18520;SDS011;9390;51.244;6.982;2024-03-08T14:07:44;15.55;;;7.82;;
18520;SDS011;9390;51.244;6.982;2024-03-08T14:10:18;14.75;;;8.02;;
18520;SDS011;9390;51.244;6.982;2024-03-08T14:12:52;18.75;;;8.73;;
18520;SDS011;9390;51.244;6.982;2024-03-08T14:15:25;16.77;;;8.77;;
18520;SDS011;9390;51.244;6.982;2024-03-08T14:17:56;15.00;;;8.13;;
18520;SDS011;9390;51.244;6.982;2024-03-08T14:20:29;19.40;;;9.07;;
18520;SDS011;9390;51.244;6.982;2024-03-08T14:23:01;17.90;;;9.43;;
18520;SDS011;9390;51.244;6.982;2024-03-08T14:25:33;18.80;;;9.57;;
18520;SDS011;9390;51.244;6.982;2024-03-08T14:28:04;18.10;;;9.05;;
18520;SDS011;9390;51.244;6.982;2024-03-08T14:30:37;17.52;;;9.57;;
18520;SDS011;9390;51.244;6.982;2024-03-08T14:33:11;16.13;;;9.10;;
18520;SDS011;9390;51.244;6.982;2024-03-08T14:35:44;16.25;;;8.85;;
18520;SDS011;9390;51.244;6.982;2024-03-08T14:38:17;18.35;;;9.80;;
18520;SDS011;9390;51.244;6.982;2024-03-08T14:40:48;17.85;;;9.32;;
18520;SDS011;9390;51.244;6.982;2024-03-08T14:43:20;18.80;;;10.10;;
18520;SDS011;9390;51.244;6.982;2024-03-08T14:45:52;18.47;;;10.00;;
18520;SDS011;9390;51.244;6.982;2024-03-08T14:48:23;16.70;;;9.43;;
18520;SDS011;9390;51.244;6.982;2024-03-08T14:50:56;21.02;;;11.35;;
18520;SDS011;9390;51.244;6.982;2024-03-08T14:53:28;19.95;;;11.20;;
18520;SDS011;9390;51.244;6.982;2024-03-08T14:56:00;21.88;;;11.18;;
18520;SDS011;9390;51.244;6.982;2024-03-08T14:58:31;18.58;;;10.35;;
18520;SDS011;9390;51.244;6.982;2024-03-08T15:01:03;20.95;;;11.07;;
18520;SDS011;9390;51.244;6.982;2024-03-08T15:03:37;19.08;;;11.25;;
18520;SDS011;9390;51.244;6.982;2024-03-08T15:06:10;20.50;;;10.00;;
18520;SDS011;9390;51.244;6.982;2024-03-08T15:08:42;20.17;;;10.63;;
18520;SDS011;9390;51.244;6.982;2024-03-08T15:11:13;19.33;;;9.85;;
18520;SDS011;9390;51.244;6.982;2024-03-08T15:13:51;19.70;;;11.05;;
18520;SDS011;9390;51.244;6.982;2024-03-08T15:16:23;19.95;;;10.50;;
18520;SDS011;9390;51.244;6.982;2024-03-08T15:18:55;19.00;;;10.93;;
18520;SDS011;9390;51.244;6.982;2024-03-08T15:21:27;22.45;;;11.45;;
18520;SDS011;9390;51.244;6.982;2024-03-08T15:23:59;21.15;;;11.18;;
18520;SDS011;9390;51.244;6.982;2024-03-08T15:26:32;21.63;;;10.38;;
18520;SDS011;9390;51.244;6.982;2024-03-08T15:29:04;20.20;;;11.65;;
18520;SDS011;9390;51.244;6.982;2024-03-08T15:31:35;21.08;;;11.73;;
18520;SDS011;9390;51.244;6.982;2024-03-08T15:34:08;18.83;;;9.68;;
18520;SDS011;9390;51.244;6.982;2024-03-08T15:39:15;20.67;;;11.30;;
18520;SDS011;9390;51.244;6.982;2024-03-08T15:41:47;21.98;;;11.55;;